sensor_id;sensor_type;location;lat;lon;timestamp;P1;durP1;ratioP1;P2;durP2;ratioP2
61477;SDS011;47345;52.334;10.392;2023-08-17T00:01:41;8.40;;;2.40;;
61477;SDS011;47345;52.334;10.392;2023-08-17T00:04:11;7.50;;;2.60;;
61477;SDS011;47345;52.334;10.392;2023-08-17T00:06:42;3.90;;;2.50;;
61477;SDS011;47345;52.334;10.392;2023-08-17T00:09:14;5.10;;;2.50;;
61477;SDS011;47345;52.334;10.392;2023-08-17T00:11:45;6.50;;;2.70;;
61477;SDS011;47345;52.334;10.392;2023-08-17T00:14:16;10.90;;;2.60;;
61477;SDS011;47345;52.334;10.392;2023-08-17T00:16:48;4.80;;;2.50;;
61477;SDS011;47345;52.334;10.392;2023-08-17T00:19:19;5.50;;;2.70;;
61477;SDS011;47345;52.334;10.392;2023-08-17T00:21:51;8.70;;;2.90;;
61477;SDS011;47345;52.334;10.392;2023-08-17T00:24:23;7.80;;;2.70;;
61477;SDS011;47345;52.334;10.392;2023-08-17T00:26:53;11.30;;;2.80;;
61477;SDS011;47345;52.334;10.392;2023-08-17T00:29:24;3.40;;;2.40;;
61477;SDS011;47345;52.334;10.392;2023-08-17T00:31:55;7.20;;;3.20;;
61477;SDS011;47345;52.334;10.392;2023-08-17T00:34:26;5.00;;;2.40;;
61477;SDS011;47345;52.334;10.392;2023-08-17T00:36:57;3.00;;;2.50;;
61477;SDS011;47345;52.334;10.392;2023-08-17T00:39:28;5.80;;;2.70;;
61477;SDS011;47345;52.334;10.392;2023-08-17T00:41:59;6.20;;;2.40;;
61477;SDS011;47345;52.334;10.392;2023-08-17T00:44:30;5.80;;;2.50;;
61477;SDS011;47345;52.334;10.392;2023-08-17T00:47:00;5.40;;;2.60;;
61477;SDS011;47345;52.334;10.392;2023-08-17T00:49:32;4.30;;;2.60;;
61477;SDS011;47345;52.334;10.392;2023-08-17T00:52:05;3.20;;;2.60;;
61477;SDS011;47345;52.334;10.392;2023-08-17T00:54:36;5.30;;;2.70;;
61477;SDS011;47345;52.334;10.392;2023-08-17T00:57:08;8.50;;;2.70;;
61477;SDS011;47345;52.334;10.392;2023-08-17T00:59:39;4.10;;;2.50;;
61477;SDS011;47345;52.334;10.392;2023-08-17T01:02:19;8.10;;;2.60;;
61477;SDS011;47345;52.334;10.392;2023-08-17T01:04:50;4.30;;;2.50;;
61477;SDS011;47345;52.334;10.392;2023-08-17T01:07:21;7.80;;;3.10;;
61477;SDS011;47345;52.334;10.392;2023-08-17T01:09:52;5.50;;;2.70;;
61477;SDS011;47345;52.334;10.392;2023-08-17T01:12:24;8.00;;;2.70;;
61477;SDS011;47345;52.334;10.392;2023-08-17T01:15:01;4.40;;;2.80;;
61477;SDS011;47345;52.334;10.392;2023-08-17T01:17:51;7.00;;;3.00;;
61477;SDS011;47345;52.334;10.392;2023-08-17T01:20:25;6.50;;;3.10;;
61477;SDS011;47345;52.334;10.392;2023-08-17T01:23:03;4.80;;;2.90;;
61477;SDS011;47345;52.334;10.392;2023-08-17T01:25:35;7.20;;;2.70;;
61477;SDS011;47345;52.334;10.392;2023-08-17T01:28:06;8.00;;;3.20;;
61477;SDS011;47345;52.334;10.392;2023-08-17T01:30:38;9.20;;;2.90;;
61477;SDS011;47345;52.334;10.392;2023-08-17T01:33:13;5.70;;;2.90;;
61477;SDS011;47345;52.334;10.392;2023-08-17T01:35:51;5.40;;;2.80;;
61477;SDS011;47345;52.334;10.392;2023-08-17T01:38:30;5.80;;;3.10;;
61477;SDS011;47345;52.334;10.392;2023-08-17T01:41:02;4.30;;;2.80;;
61477;SDS011;47345;52.334;10.392;2023-08-17T01:43:35;6.00;;;3.20;;
61477;SDS011;47345;52.334;10.392;2023-08-17T01:46:08;5.20;;;3.50;;
61477;SDS011;47345;52.334;10.392;2023-08-17T01:48:39;8.60;;;3.40;;
61477;SDS011;47345;52.334;10.392;2023-08-17T01:51:10;7.40;;;3.00;;
61477;SDS011;47345;52.334;10.392;2023-08-17T01:53:45;8.00;;;3.00;;
61477;SDS011;47345;52.334;10.392;2023-08-17T01:56:17;4.90;;;3.10;;
61477;SDS011;47345;52.334;10.392;2023-08-17T01:58:47;9.50;;;3.30;;
61477;SDS011;47345;52.334;10.392;2023-08-17T02:01:18;4.80;;;3.00;;
61477;SDS011;47345;52.334;10.392;2023-08-17T02:03:49;6.40;;;3.50;;
61477;SDS011;47345;52.334;10.392;2023-08-17T02:06:20;8.30;;;2.90;;
61477;SDS011;47345;52.334;10.392;2023-08-17T02:08:52;5.50;;;3.40;;
61477;SDS011;47345;52.334;10.392;2023-08-17T02:11:23;3.90;;;2.70;;
61477;SDS011;47345;52.334;10.392;2023-08-17T02:13:54;6.30;;;3.00;;
61477;SDS011;47345;52.334;10.392;2023-08-17T02:16:25;5.80;;;3.10;;
61477;SDS011;47345;52.334;10.392;2023-08-17T02:18:56;9.60;;;3.10;;
61477;SDS011;47345;52.334;10.392;2023-08-17T02:21:27;7.60;;;3.10;;
61477;SDS011;47345;52.334;10.392;2023-08-17T02:23:58;6.00;;;3.40;;
61477;SDS011;47345;52.334;10.392;2023-08-17T02:26:28;6.80;;;3.00;;
61477;SDS011;47345;52.334;10.392;2023-08-17T02:29:00;4.70;;;3.10;;
61477;SDS011;47345;52.334;10.392;2023-08-17T02:31:31;9.20;;;3.50;;
61477;SDS011;47345;52.334;10.392;2023-08-17T02:34:02;6.80;;;3.30;;
61477;SDS011;47345;52.334;10.392;2023-08-17T02:36:33;4.00;;;3.10;;
61477;SDS011;47345;52.334;10.392;2023-08-17T02:39:04;7.60;;;3.50;;
61477;SDS011;47345;52.334;10.392;2023-08-17T02:41:35;5.10;;;3.50;;
61477;SDS011;47345;52.334;10.392;2023-08-17T02:44:07;9.80;;;3.90;;
61477;SDS011;47345;52.334;10.392;2023-08-17T02:46:38;4.80;;;3.40;;
61477;SDS011;47345;52.334;10.392;2023-08-17T02:49:08;5.20;;;3.70;;
61477;SDS011;47345;52.334;10.392;2023-08-17T02:51:39;6.60;;;3.50;;
61477;SDS011;47345;52.334;10.392;2023-08-17T02:54:10;5.70;;;3.20;;
61477;SDS011;47345;52.334;10.392;2023-08-17T02:56:41;4.10;;;3.30;;
61477;SDS011;47345;52.334;10.392;2023-08-17T02:59:12;3.90;;;2.70;;
61477;SDS011;47345;52.334;10.392;2023-08-17T03:01:43;3.80;;;2.80;;
61477;SDS011;47345;52.334;10.392;2023-08-17T03:04:14;4.40;;;3.10;;
61477;SDS011;47345;52.334;10.392;2023-08-17T03:06:45;3.20;;;2.60;;
61477;SDS011;47345;52.334;10.392;2023-08-17T03:09:15;4.40;;;3.00;;
61477;SDS011;47345;52.334;10.392;2023-08-17T03:11:46;4.60;;;3.10;;
61477;SDS011;47345;52.334;10.392;2023-08-17T03:14:17;3.80;;;2.70;;
61477;SDS011;47345;52.334;10.392;2023-08-17T03:16:48;5.90;;;3.10;;
61477;SDS011;47345;52.334;10.392;2023-08-17T03:19:19;4.30;;;3.10;;
61477;SDS011;47345;52.334;10.392;2023-08-17T03:21:50;5.40;;;3.30;;
61477;SDS011;47345;52.334;10.392;2023-08-17T03:24:21;3.80;;;3.20;;
61477;SDS011;47345;52.334;10.392;2023-08-17T03:26:52;4.80;;;3.50;;
61477;SDS011;47345;52.334;10.392;2023-08-17T03:29:23;4.20;;;3.30;;
61477;SDS011;47345;52.334;10.392;2023-08-17T03:31:54;4.40;;;3.30;;
61477;SDS011;47345;52.334;10.392;2023-08-17T03:34:25;4.80;;;3.40;;
61477;SDS011;47345;52.334;10.392;2023-08-17T03:36:56;3.40;;;3.10;;
61477;SDS011;47345;52.334;10.392;2023-08-17T03:39:27;4.10;;;3.20;;
61477;SDS011;47345;52.334;10.392;2023-08-17T03:41:58;4.50;;;3.40;;
61477;SDS011;47345;52.334;10.392;2023-08-17T03:44:29;4.90;;;3.40;;
61477;SDS011;47345;52.334;10.392;2023-08-17T03:47:00;6.90;;;3.70;;
61477;SDS011;47345;52.334;10.392;2023-08-17T03:49:31;5.50;;;3.30;;
61477;SDS011;47345;52.334;10.392;2023-08-17T03:52:02;5.70;;;3.50;;
61477;SDS011;47345;52.334;10.392;2023-08-17T03:54:34;3.50;;;2.90;;
61477;SDS011;47345;52.334;10.392;2023-08-17T03:57:05;5.60;;;3.60;;
61477;SDS011;47345;52.334;10.392;2023-08-17T03:59:36;5.60;;;3.60;;
61477;SDS011;47345;52.334;10.392;2023-08-17T04:02:07;7.70;;;3.60;;
61477;SDS011;47345;52.334;10.392;2023-08-17T04:04:37;6.50;;;4.00;;
61477;SDS011;47345;52.334;10.392;2023-08-17T04:07:08;4.60;;;3.10;;
61477;SDS011;47345;52.334;10.392;2023-08-17T04:09:43;4.70;;;3.30;;
61477;SDS011;47345;52.334;10.392;2023-08-17T04:12:13;4.00;;;3.30;;
61477;SDS011;47345;52.334;10.392;2023-08-17T04:14:44;4.90;;;3.70;;
61477;SDS011;47345;52.334;10.392;2023-08-17T04:17:15;5.10;;;4.00;;
61477;SDS011;47345;52.334;10.392;2023-08-17T04:19:46;10.70;;;4.10;;
61477;SDS011;47345;52.334;10.392;2023-08-17T04:22:17;10.20;;;3.80;;
61477;SDS011;47345;52.334;10.392;2023-08-17T04:24:48;4.90;;;3.80;;
61477;SDS011;47345;52.334;10.392;2023-08-17T04:27:19;4.60;;;3.80;;
61477;SDS011;47345;52.334;10.392;2023-08-17T04:29:51;6.20;;;3.70;;
61477;SDS011;47345;52.334;10.392;2023-08-17T04:32:21;6.20;;;3.70;;
61477;SDS011;47345;52.334;10.392;2023-08-17T04:34:52;5.90;;;4.10;;
61477;SDS011;47345;52.334;10.392;2023-08-17T04:37:23;4.00;;;3.50;;
61477;SDS011;47345;52.334;10.392;2023-08-17T04:39:55;13.70;;;4.20;;
61477;SDS011;47345;52.334;10.392;2023-08-17T04:42:26;4.10;;;3.80;;
61477;SDS011;47345;52.334;10.392;2023-08-17T04:44:57;6.00;;;5.10;;
61477;SDS011;47345;52.334;10.392;2023-08-17T04:47:28;5.10;;;3.90;;
61477;SDS011;47345;52.334;10.392;2023-08-17T04:49:58;6.40;;;4.00;;
61477;SDS011;47345;52.334;10.392;2023-08-17T04:52:29;5.10;;;3.90;;
61477;SDS011;47345;52.334;10.392;2023-08-17T04:55:00;6.80;;;3.70;;
61477;SDS011;47345;52.334;10.392;2023-08-17T04:57:31;4.70;;;3.80;;
61477;SDS011;47345;52.334;10.392;2023-08-17T05:00:04;5.30;;;3.70;;
61477;SDS011;47345;52.334;10.392;2023-08-17T05:02:37;6.40;;;4.30;;
61477;SDS011;47345;52.334;10.392;2023-08-17T05:05:09;4.50;;;3.80;;
61477;SDS011;47345;52.334;10.392;2023-08-17T05:07:41;4.20;;;3.80;;
61477;SDS011;47345;52.334;10.392;2023-08-17T05:10:12;4.40;;;4.00;;
61477;SDS011;47345;52.334;10.392;2023-08-17T05:12:43;5.70;;;3.80;;
61477;SDS011;47345;52.334;10.392;2023-08-17T05:15:14;4.30;;;3.90;;
61477;SDS011;47345;52.334;10.392;2023-08-17T05:17:45;4.70;;;4.10;;
61477;SDS011;47345;52.334;10.392;2023-08-17T05:20:16;7.20;;;4.30;;
61477;SDS011;47345;52.334;10.392;2023-08-17T05:22:48;7.00;;;3.90;;
61477;SDS011;47345;52.334;10.392;2023-08-17T05:25:19;5.20;;;4.00;;
61477;SDS011;47345;52.334;10.392;2023-08-17T05:27:50;5.90;;;4.00;;
61477;SDS011;47345;52.334;10.392;2023-08-17T05:30:21;4.50;;;3.50;;
61477;SDS011;47345;52.334;10.392;2023-08-17T05:32:52;4.30;;;3.60;;
61477;SDS011;47345;52.334;10.392;2023-08-17T05:35:23;4.20;;;3.80;;
61477;SDS011;47345;52.334;10.392;2023-08-17T05:37:54;5.80;;;4.00;;
61477;SDS011;47345;52.334;10.392;2023-08-17T05:40:26;4.70;;;3.60;;
61477;SDS011;47345;52.334;10.392;2023-08-17T05:42:58;4.40;;;3.60;;
61477;SDS011;47345;52.334;10.392;2023-08-17T05:45:28;3.80;;;3.50;;
61477;SDS011;47345;52.334;10.392;2023-08-17T05:47:59;5.40;;;3.50;;
61477;SDS011;47345;52.334;10.392;2023-08-17T05:50:30;9.30;;;3.90;;
61477;SDS011;47345;52.334;10.392;2023-08-17T05:53:01;6.30;;;3.30;;
61477;SDS011;47345;52.334;10.392;2023-08-17T05:55:32;5.50;;;3.60;;
61477;SDS011;47345;52.334;10.392;2023-08-17T05:58:03;4.90;;;3.30;;
61477;SDS011;47345;52.334;10.392;2023-08-17T06:00:34;3.50;;;3.10;;
61477;SDS011;47345;52.334;10.392;2023-08-17T06:03:05;5.30;;;3.40;;
61477;SDS011;47345;52.334;10.392;2023-08-17T06:05:36;5.80;;;3.50;;
61477;SDS011;47345;52.334;10.392;2023-08-17T06:08:08;3.60;;;3.30;;
61477;SDS011;47345;52.334;10.392;2023-08-17T06:10:38;5.90;;;3.30;;
61477;SDS011;47345;52.334;10.392;2023-08-17T06:13:09;5.50;;;3.40;;
61477;SDS011;47345;52.334;10.392;2023-08-17T06:15:40;4.70;;;3.40;;
61477;SDS011;47345;52.334;10.392;2023-08-17T06:18:11;4.40;;;3.40;;
61477;SDS011;47345;52.334;10.392;2023-08-17T06:20:42;3.80;;;3.20;;
61477;SDS011;47345;52.334;10.392;2023-08-17T06:23:14;7.60;;;3.10;;
61477;SDS011;47345;52.334;10.392;2023-08-17T06:25:44;6.80;;;3.00;;
61477;SDS011;47345;52.334;10.392;2023-08-17T06:28:15;6.30;;;3.40;;
61477;SDS011;47345;52.334;10.392;2023-08-17T06:30:46;3.90;;;2.80;;
61477;SDS011;47345;52.334;10.392;2023-08-17T06:33:20;4.40;;;3.00;;
61477;SDS011;47345;52.334;10.392;2023-08-17T06:35:51;3.40;;;2.80;;
61477;SDS011;47345;52.334;10.392;2023-08-17T06:38:22;3.40;;;3.10;;
61477;SDS011;47345;52.334;10.392;2023-08-17T06:40:53;10.10;;;3.20;;
61477;SDS011;47345;52.334;10.392;2023-08-17T06:43:24;4.30;;;2.80;;
61477;SDS011;47345;52.334;10.392;2023-08-17T06:45:55;4.30;;;2.70;;
61477;SDS011;47345;52.334;10.392;2023-08-17T06:48:28;3.80;;;2.70;;
61477;SDS011;47345;52.334;10.392;2023-08-17T06:51:00;5.90;;;2.70;;
61477;SDS011;47345;52.334;10.392;2023-08-17T06:53:32;8.90;;;2.60;;
61477;SDS011;47345;52.334;10.392;2023-08-17T06:56:04;2.80;;;2.50;;
61477;SDS011;47345;52.334;10.392;2023-08-17T06:58:35;2.90;;;2.60;;
61477;SDS011;47345;52.334;10.392;2023-08-17T07:01:06;3.20;;;2.80;;
61477;SDS011;47345;52.334;10.392;2023-08-17T07:03:37;2.70;;;2.40;;
61477;SDS011;47345;52.334;10.392;2023-08-17T07:06:08;2.70;;;2.50;;
61477;SDS011;47345;52.334;10.392;2023-08-17T07:08:40;4.00;;;2.90;;
61477;SDS011;47345;52.334;10.392;2023-08-17T07:11:11;8.30;;;2.90;;
61477;SDS011;47345;52.334;10.392;2023-08-17T07:13:42;4.80;;;2.60;;
61477;SDS011;47345;52.334;10.392;2023-08-17T07:16:13;5.30;;;2.70;;
61477;SDS011;47345;52.334;10.392;2023-08-17T07:18:44;6.40;;;2.60;;
61477;SDS011;47345;52.334;10.392;2023-08-17T07:21:14;3.50;;;2.70;;
61477;SDS011;47345;52.334;10.392;2023-08-17T07:23:45;3.00;;;2.70;;
61477;SDS011;47345;52.334;10.392;2023-08-17T07:26:16;6.70;;;2.60;;
61477;SDS011;47345;52.334;10.392;2023-08-17T07:28:48;6.50;;;2.70;;
61477;SDS011;47345;52.334;10.392;2023-08-17T07:31:19;2.70;;;2.50;;
61477;SDS011;47345;52.334;10.392;2023-08-17T07:33:49;2.90;;;2.50;;
61477;SDS011;47345;52.334;10.392;2023-08-17T07:36:20;5.20;;;2.60;;
61477;SDS011;47345;52.334;10.392;2023-08-17T07:38:51;3.00;;;2.80;;
61477;SDS011;47345;52.334;10.392;2023-08-17T07:41:23;4.30;;;2.30;;
61477;SDS011;47345;52.334;10.392;2023-08-17T07:43:54;3.00;;;2.50;;
61477;SDS011;47345;52.334;10.392;2023-08-17T07:46:24;3.30;;;2.50;;
61477;SDS011;47345;52.334;10.392;2023-08-17T07:48:55;2.60;;;2.30;;
61477;SDS011;47345;52.334;10.392;2023-08-17T07:51:26;3.00;;;2.40;;
61477;SDS011;47345;52.334;10.392;2023-08-17T07:53:57;2.60;;;2.40;;
61477;SDS011;47345;52.334;10.392;2023-08-17T07:56:29;2.50;;;2.30;;
61477;SDS011;47345;52.334;10.392;2023-08-17T07:59:00;5.50;;;2.50;;
61477;SDS011;47345;52.334;10.392;2023-08-17T08:01:31;2.60;;;2.40;;
61477;SDS011;47345;52.334;10.392;2023-08-17T08:04:02;3.20;;;2.60;;
61477;SDS011;47345;52.334;10.392;2023-08-17T08:06:33;2.60;;;2.40;;
61477;SDS011;47345;52.334;10.392;2023-08-17T08:09:04;2.90;;;2.60;;
61477;SDS011;47345;52.334;10.392;2023-08-17T08:11:35;3.00;;;2.70;;
61477;SDS011;47345;52.334;10.392;2023-08-17T08:14:06;4.40;;;2.70;;
61477;SDS011;47345;52.334;10.392;2023-08-17T08:16:37;4.00;;;2.60;;
61477;SDS011;47345;52.334;10.392;2023-08-17T08:19:08;4.30;;;2.80;;
61477;SDS011;47345;52.334;10.392;2023-08-17T08:21:39;3.00;;;2.40;;
61477;SDS011;47345;52.334;10.392;2023-08-17T08:24:09;2.60;;;2.40;;
61477;SDS011;47345;52.334;10.392;2023-08-17T08:26:57;2.90;;;2.40;;
61477;SDS011;47345;52.334;10.392;2023-08-17T08:29:28;2.40;;;2.10;;
61477;SDS011;47345;52.334;10.392;2023-08-17T08:31:59;2.30;;;2.10;;
61477;SDS011;47345;52.334;10.392;2023-08-17T08:34:31;4.90;;;2.30;;
61477;SDS011;47345;52.334;10.392;2023-08-17T08:37:02;4.40;;;2.40;;
61477;SDS011;47345;52.334;10.392;2023-08-17T08:39:33;2.50;;;2.30;;
61477;SDS011;47345;52.334;10.392;2023-08-17T08:42:19;2.50;;;2.30;;
61477;SDS011;47345;52.334;10.392;2023-08-17T08:44:51;4.50;;;2.20;;
61477;SDS011;47345;52.334;10.392;2023-08-17T08:47:22;3.10;;;2.30;;
61477;SDS011;47345;52.334;10.392;2023-08-17T08:49:57;3.60;;;2.30;;
61477;SDS011;47345;52.334;10.392;2023-08-17T08:52:33;5.10;;;2.40;;
61477;SDS011;47345;52.334;10.392;2023-08-17T08:55:05;2.40;;;2.10;;
61477;SDS011;47345;52.334;10.392;2023-08-17T08:57:41;3.20;;;2.30;;
61477;SDS011;47345;52.334;10.392;2023-08-17T09:00:18;3.30;;;2.40;;
61477;SDS011;47345;52.334;10.392;2023-08-17T09:02:49;2.40;;;2.20;;
61477;SDS011;47345;52.334;10.392;2023-08-17T09:05:21;2.70;;;2.50;;
61477;SDS011;47345;52.334;10.392;2023-08-17T09:07:52;4.70;;;2.40;;
61477;SDS011;47345;52.334;10.392;2023-08-17T09:10:25;2.70;;;2.50;;
61477;SDS011;47345;52.334;10.392;2023-08-17T09:12:59;3.20;;;2.80;;
61477;SDS011;47345;52.334;10.392;2023-08-17T09:15:30;3.80;;;2.60;;
61477;SDS011;47345;52.334;10.392;2023-08-17T09:18:01;2.70;;;2.50;;
61477;SDS011;47345;52.334;10.392;2023-08-17T09:20:37;3.10;;;2.80;;
61477;SDS011;47345;52.334;10.392;2023-08-17T09:23:15;6.20;;;2.90;;
61477;SDS011;47345;52.334;10.392;2023-08-17T09:25:48;5.70;;;3.20;;
61477;SDS011;47345;52.334;10.392;2023-08-17T09:28:25;6.20;;;3.10;;
61477;SDS011;47345;52.334;10.392;2023-08-17T09:30:59;2.90;;;2.70;;
61477;SDS011;47345;52.334;10.392;2023-08-17T09:33:32;3.10;;;2.80;;
61477;SDS011;47345;52.334;10.392;2023-08-17T09:36:03;2.80;;;2.60;;
61477;SDS011;47345;52.334;10.392;2023-08-17T09:38:34;2.80;;;2.60;;
61477;SDS011;47345;52.334;10.392;2023-08-17T09:41:06;4.20;;;2.80;;
61477;SDS011;47345;52.334;10.392;2023-08-17T09:43:37;4.90;;;3.20;;
61477;SDS011;47345;52.334;10.392;2023-08-17T09:46:07;9.20;;;3.20;;
61477;SDS011;47345;52.334;10.392;2023-08-17T09:48:39;3.80;;;3.10;;
61477;SDS011;47345;52.334;10.392;2023-08-17T09:51:14;6.50;;;3.40;;
61477;SDS011;47345;52.334;10.392;2023-08-17T09:53:51;3.50;;;3.00;;
61477;SDS011;47345;52.334;10.392;2023-08-17T09:56:27;4.80;;;3.40;;
61477;SDS011;47345;52.334;10.392;2023-08-17T09:58:58;3.70;;;3.20;;
61477;SDS011;47345;52.334;10.392;2023-08-17T10:01:29;5.40;;;3.70;;
61477;SDS011;47345;52.334;10.392;2023-08-17T10:04:00;4.30;;;3.00;;
61477;SDS011;47345;52.334;10.392;2023-08-17T10:06:33;3.80;;;3.40;;
61477;SDS011;47345;52.334;10.392;2023-08-17T10:09:07;3.70;;;3.40;;
61477;SDS011;47345;52.334;10.392;2023-08-17T10:11:43;4.30;;;3.30;;
61477;SDS011;47345;52.334;10.392;2023-08-17T10:14:23;4.00;;;3.10;;
61477;SDS011;47345;52.334;10.392;2023-08-17T10:16:59;4.50;;;3.70;;
61477;SDS011;47345;52.334;10.392;2023-08-17T10:19:41;5.10;;;3.50;;
61477;SDS011;47345;52.334;10.392;2023-08-17T10:22:20;3.90;;;3.40;;
61477;SDS011;47345;52.334;10.392;2023-08-17T10:24:57;6.60;;;3.50;;
61477;SDS011;47345;52.334;10.392;2023-08-17T10:27:29;6.40;;;3.50;;
61477;SDS011;47345;52.334;10.392;2023-08-17T10:30:01;6.70;;;3.30;;
61477;SDS011;47345;52.334;10.392;2023-08-17T10:32:36;4.40;;;3.20;;
61477;SDS011;47345;52.334;10.392;2023-08-17T10:35:09;7.60;;;3.30;;
61477;SDS011;47345;52.334;10.392;2023-08-17T10:37:40;3.90;;;3.60;;
61477;SDS011;47345;52.334;10.392;2023-08-17T10:40:12;3.60;;;3.20;;
61477;SDS011;47345;52.334;10.392;2023-08-17T10:42:43;4.30;;;3.60;;
61477;SDS011;47345;52.334;10.392;2023-08-17T10:45:29;6.00;;;3.60;;
61477;SDS011;47345;52.334;10.392;2023-08-17T10:51:01;4.60;;;3.20;;
61477;SDS011;47345;52.334;10.392;2023-08-17T10:53:36;9.30;;;3.50;;
61477;SDS011;47345;52.334;10.392;2023-08-17T10:56:13;4.20;;;3.10;;
61477;SDS011;47345;52.334;10.392;2023-08-17T10:58:45;9.70;;;3.10;;
61477;SDS011;47345;52.334;10.392;2023-08-17T11:01:31;5.00;;;2.90;;
61477;SDS011;47345;52.334;10.392;2023-08-17T11:04:11;7.10;;;2.90;;
61477;SDS011;47345;52.334;10.392;2023-08-17T11:06:45;5.10;;;3.20;;
61477;SDS011;47345;52.334;10.392;2023-08-17T11:09:29;6.50;;;3.40;;
61477;SDS011;47345;52.334;10.392;2023-08-17T11:12:01;4.70;;;3.30;;
61477;SDS011;47345;52.334;10.392;2023-08-17T11:14:34;8.40;;;3.60;;
61477;SDS011;47345;52.334;10.392;2023-08-17T11:17:04;5.80;;;3.50;;
61477;SDS011;47345;52.334;10.392;2023-08-17T11:19:40;4.80;;;3.70;;
61477;SDS011;47345;52.334;10.392;2023-08-17T11:22:12;6.80;;;3.80;;
61477;SDS011;47345;52.334;10.392;2023-08-17T11:24:47;6.70;;;4.00;;
61477;SDS011;47345;52.334;10.392;2023-08-17T11:27:18;7.70;;;3.60;;
61477;SDS011;47345;52.334;10.392;2023-08-17T11:29:50;9.70;;;4.50;;
61477;SDS011;47345;52.334;10.392;2023-08-17T11:32:22;8.30;;;4.10;;
61477;SDS011;47345;52.334;10.392;2023-08-17T11:34:53;9.80;;;5.10;;
61477;SDS011;47345;52.334;10.392;2023-08-17T11:37:26;6.00;;;4.50;;
61477;SDS011;47345;52.334;10.392;2023-08-17T11:39:57;8.60;;;4.90;;
61477;SDS011;47345;52.334;10.392;2023-08-17T11:42:28;13.20;;;5.00;;
61477;SDS011;47345;52.334;10.392;2023-08-17T11:44:59;9.10;;;5.10;;
61477;SDS011;47345;52.334;10.392;2023-08-17T11:47:30;12.20;;;5.50;;
61477;SDS011;47345;52.334;10.392;2023-08-17T11:50:02;10.40;;;5.20;;
61477;SDS011;47345;52.334;10.392;2023-08-17T11:52:47;9.90;;;5.40;;
61477;SDS011;47345;52.334;10.392;2023-08-17T11:55:18;12.40;;;5.20;;
61477;SDS011;47345;52.334;10.392;2023-08-17T11:57:49;8.70;;;4.70;;
61477;SDS011;47345;52.334;10.392;2023-08-17T12:00:20;7.60;;;4.30;;
61477;SDS011;47345;52.334;10.392;2023-08-17T12:02:53;7.70;;;4.30;;
61477;SDS011;47345;52.334;10.392;2023-08-17T12:05:24;10.90;;;4.60;;
61477;SDS011;47345;52.334;10.392;2023-08-17T12:07:57;8.90;;;4.80;;
61477;SDS011;47345;52.334;10.392;2023-08-17T12:10:28;8.00;;;5.30;;
61477;SDS011;47345;52.334;10.392;2023-08-17T12:12:59;7.80;;;4.90;;
61477;SDS011;47345;52.334;10.392;2023-08-17T12:15:31;10.00;;;4.90;;
61477;SDS011;47345;52.334;10.392;2023-08-17T12:18:03;10.50;;;5.40;;
61477;SDS011;47345;52.334;10.392;2023-08-17T12:20:35;12.10;;;5.70;;
61477;SDS011;47345;52.334;10.392;2023-08-17T12:23:06;10.40;;;5.00;;
61477;SDS011;47345;52.334;10.392;2023-08-17T12:25:36;17.90;;;6.10;;
61477;SDS011;47345;52.334;10.392;2023-08-17T12:28:07;9.80;;;5.70;;
61477;SDS011;47345;52.334;10.392;2023-08-17T12:30:41;9.80;;;5.10;;
61477;SDS011;47345;52.334;10.392;2023-08-17T12:33:12;11.20;;;5.70;;
61477;SDS011;47345;52.334;10.392;2023-08-17T12:35:44;10.80;;;5.30;;
61477;SDS011;47345;52.334;10.392;2023-08-17T12:38:15;9.00;;;5.00;;
61477;SDS011;47345;52.334;10.392;2023-08-17T12:40:45;9.80;;;4.90;;
61477;SDS011;47345;52.334;10.392;2023-08-17T12:43:16;12.70;;;5.70;;
61477;SDS011;47345;52.334;10.392;2023-08-17T12:45:47;8.70;;;5.20;;
61477;SDS011;47345;52.334;10.392;2023-08-17T12:48:18;9.60;;;5.60;;
61477;SDS011;47345;52.334;10.392;2023-08-17T12:50:49;12.70;;;5.80;;
61477;SDS011;47345;52.334;10.392;2023-08-17T12:53:20;13.70;;;6.30;;
61477;SDS011;47345;52.334;10.392;2023-08-17T12:55:51;9.70;;;5.50;;
61477;SDS011;47345;52.334;10.392;2023-08-17T12:58:23;11.90;;;6.30;;
61477;SDS011;47345;52.334;10.392;2023-08-17T13:00:53;11.20;;;5.50;;
61477;SDS011;47345;52.334;10.392;2023-08-17T13:03:25;13.10;;;6.00;;
61477;SDS011;47345;52.334;10.392;2023-08-17T13:05:56;11.90;;;6.20;;
61477;SDS011;47345;52.334;10.392;2023-08-17T13:08:27;7.30;;;4.80;;
61477;SDS011;47345;52.334;10.392;2023-08-17T13:10:58;13.80;;;5.70;;
61477;SDS011;47345;52.334;10.392;2023-08-17T13:13:29;10.10;;;6.40;;
61477;SDS011;47345;52.334;10.392;2023-08-17T13:15:59;16.20;;;6.90;;
61477;SDS011;47345;52.334;10.392;2023-08-17T13:18:33;15.50;;;6.30;;
61477;SDS011;47345;52.334;10.392;2023-08-17T13:21:04;12.90;;;6.60;;
61477;SDS011;47345;52.334;10.392;2023-08-17T13:23:37;12.90;;;6.50;;
61477;SDS011;47345;52.334;10.392;2023-08-17T13:26:07;12.40;;;6.60;;
61477;SDS011;47345;52.334;10.392;2023-08-17T13:28:38;12.30;;;6.00;;
61477;SDS011;47345;52.334;10.392;2023-08-17T13:31:10;10.40;;;5.80;;
61477;SDS011;47345;52.334;10.392;2023-08-17T13:33:51;9.20;;;5.50;;
61477;SDS011;47345;52.334;10.392;2023-08-17T13:36:22;11.30;;;6.10;;
61477;SDS011;47345;52.334;10.392;2023-08-17T13:38:54;11.20;;;5.50;;
61477;SDS011;47345;52.334;10.392;2023-08-17T13:41:25;11.60;;;5.80;;
61477;SDS011;47345;52.334;10.392;2023-08-17T13:43:56;11.50;;;5.40;;
61477;SDS011;47345;52.334;10.392;2023-08-17T13:46:28;11.20;;;5.60;;
61477;SDS011;47345;52.334;10.392;2023-08-17T13:48:59;10.30;;;6.00;;
61477;SDS011;47345;52.334;10.392;2023-08-17T13:51:30;10.30;;;5.40;;
61477;SDS011;47345;52.334;10.392;2023-08-17T13:54:01;10.70;;;5.90;;
61477;SDS011;47345;52.334;10.392;2023-08-17T13:56:32;8.20;;;5.20;;
61477;SDS011;47345;52.334;10.392;2023-08-17T13:59:03;9.60;;;5.50;;
61477;SDS011;47345;52.334;10.392;2023-08-17T14:01:35;14.40;;;5.80;;
61477;SDS011;47345;52.334;10.392;2023-08-17T14:04:06;8.70;;;5.00;;
61477;SDS011;47345;52.334;10.392;2023-08-17T14:06:39;11.80;;;5.10;;
61477;SDS011;47345;52.334;10.392;2023-08-17T14:09:10;8.10;;;4.90;;
61477;SDS011;47345;52.334;10.392;2023-08-17T14:11:41;8.40;;;5.00;;
61477;SDS011;47345;52.334;10.392;2023-08-17T14:14:12;6.90;;;4.20;;
61477;SDS011;47345;52.334;10.392;2023-08-17T14:16:43;12.20;;;5.20;;
61477;SDS011;47345;52.334;10.392;2023-08-17T14:19:14;12.00;;;5.00;;
61477;SDS011;47345;52.334;10.392;2023-08-17T14:21:45;13.80;;;6.70;;
61477;SDS011;47345;52.334;10.392;2023-08-17T14:24:16;9.30;;;5.80;;
61477;SDS011;47345;52.334;10.392;2023-08-17T14:26:47;10.70;;;5.40;;
61477;SDS011;47345;52.334;10.392;2023-08-17T14:29:18;11.20;;;5.10;;
61477;SDS011;47345;52.334;10.392;2023-08-17T14:31:48;10.70;;;4.80;;
61477;SDS011;47345;52.334;10.392;2023-08-17T14:34:23;9.60;;;5.20;;
61477;SDS011;47345;52.334;10.392;2023-08-17T14:36:54;9.70;;;5.00;;
61477;SDS011;47345;52.334;10.392;2023-08-17T14:39:25;11.40;;;5.40;;
61477;SDS011;47345;52.334;10.392;2023-08-17T14:41:56;9.00;;;5.40;;
61477;SDS011;47345;52.334;10.392;2023-08-17T14:44:27;9.50;;;4.90;;
61477;SDS011;47345;52.334;10.392;2023-08-17T14:46:58;9.80;;;4.40;;
61477;SDS011;47345;52.334;10.392;2023-08-17T14:49:29;9.10;;;5.30;;
61477;SDS011;47345;52.334;10.392;2023-08-17T14:52:00;10.50;;;4.70;;
61477;SDS011;47345;52.334;10.392;2023-08-17T14:54:31;10.60;;;5.20;;
61477;SDS011;47345;52.334;10.392;2023-08-17T14:57:02;10.60;;;5.20;;
61477;SDS011;47345;52.334;10.392;2023-08-17T14:59:33;10.20;;;5.50;;
61477;SDS011;47345;52.334;10.392;2023-08-17T15:02:04;8.20;;;4.80;;
61477;SDS011;47345;52.334;10.392;2023-08-17T15:04:37;15.00;;;5.40;;